Benton, CA (93512)

9:28 PM PDT on September 23, 2014 (GMT -0700)
RAWS DEXTER CA US | Change Station
CLOSE
Current Station
Personal Weather Station
Location: Benton, CA
Elevation: 7980 ft
Nearby Weather Stations

Elev 7980 ft 37.84 °N, 118.77 °W | Updated 35 minutes ago

Clear
Clear
58 °F
Feels Like 58 °F
N
8
Wind Variable Wind from NNE
Gusts 12.0 mph

Today
High -- | Low -- °F
--% Chance of Precip.
Yesterday
High -- | Low -- °F
Precip. -- in
6:43 AM 6:49 PM
Waning Crescent, 0% visible
Pressure 30.27 in
Visibility 10.0 miles
Clouds Clear
Dew Point 31 °F
Humidity 36%
Rainfall 0.00 in
Snow Depth 2 in , 0 in , 0 in
UV 0 out of 12
Pollen 6.00 out of 12
Air Quality Not available.
Flu Activity Not available.
METAR KMMH 240415Z AUTO 00000KT 10SM CLR 12/M01 A3027 RMK AO1

More Conditions Fewer Conditions

Pressure 30.27 in
Visibility 10.0 miles
Clouds Clear
Dew Point 31 °F
Humidity 36%
Rainfall 0.00 in
Snow Depth 2 in , 0 in , 0 in
UV 0 out of 12
Pollen 6.00 out of 12
Air Quality Not available.
Flu Activity Not available.
METAR KMMH 240415Z AUTO 00000KT 10SM CLR 12/M01 A3027 RMK AO1

More Conditions Fewer Conditions

10-Day Weather Forecast

Almanac

Astronomy

Sep. 23, 2014 Rise Set
Actual Time 6:43 AM PDT 6:49 PM PDT
Civil Twilight 6:17 AM PDT 7:16 PM PDT
Nautical Twilight 5:46 AM PDT 7:46 PM PDT
Astronomical Twilight 5:15 AM PDT 8:17 PM PDT
Moon 6:12 AM PDT (9/23) 6:31 PM PDT (9/23)
Length of Visible Light 12h 58m
Length of Day
12h 06m
Tomorrow will be 2m 25s shorter.
Waning Crescent, 0% of the Moon is Illuminated
Sep 24
Waning Crescent
Sep 24
New
Oct 1
First Quarter
Oct 8
Full
Oct 15
Last Quarter

Today's Extremes

State Highs State Lows

Community

WunderPhotos

Upload Photos

1,755,890 photos uploaded!

WunderBlogs® & News

Nearby

Snow Depth

Station Depth Elevation
CSS Lab 2 in 6900 ft
Blue Lakes 0 in 8000 ft
Summit Meadow 0 in 9122 ft
Spratt Creek 0 in 6200 ft
Monitor Pass 0 in 8350 ft

Earthquake Activity

City Distance Mag. Time & Date
No recent earthquake activity has been reported nearby.
Minimum magnitude displayed is 2.5.

Coastal Water Temperatures

Place Temperature
No Stations Reporting

Nearby Weather Stations